createdAt,value
2023-04-04T00:00:10.465Z,16.45
2023-04-04T00:01:10.420Z,16.45
2023-04-04T00:02:10.415Z,16.46
2023-04-04T00:03:10.537Z,16.45
2023-04-04T00:04:10.431Z,16.45
2023-04-04T00:05:10.388Z,16.46
2023-04-04T00:06:10.389Z,16.45
2023-04-04T00:07:10.356Z,16.46
2023-04-04T00:08:10.362Z,16.43
2023-04-04T00:09:10.357Z,16.45
2023-04-04T00:10:10.323Z,16.43
2023-04-04T00:11:10.338Z,16.45
2023-04-04T00:12:10.311Z,16.45
2023-04-04T00:13:10.305Z,16.45
2023-04-04T00:14:10.279Z,16.43
2023-04-04T00:15:10.274Z,16.43
2023-04-04T00:16:10.360Z,16.45
2023-04-04T00:17:10.267Z,16.43
2023-04-04T00:18:10.324Z,16.45
2023-04-04T00:19:10.244Z,16.45
2023-04-04T00:20:10.221Z,16.45
2023-04-04T00:21:10.206Z,16.43
2023-04-04T00:22:10.205Z,16.46
2023-04-04T00:23:10.203Z,16.45
2023-04-04T00:24:10.199Z,16.45
2023-04-04T00:25:10.182Z,16.43
2023-04-04T00:26:10.192Z,16.46
2023-04-04T00:27:10.158Z,16.43
2023-04-04T00:28:10.130Z,16.45
2023-04-04T00:29:10.115Z,16.43
2023-04-04T00:30:10.126Z,16.45
2023-04-04T00:31:10.116Z,16.45
2023-04-04T00:32:10.148Z,16.43
2023-04-04T00:33:10.165Z,16.43
2023-04-04T00:34:10.066Z,16.42
2023-04-04T00:35:10.077Z,16.42
2023-04-04T00:36:10.075Z,16.43
2023-04-04T00:37:10.032Z,16.43
2023-04-04T00:38:10.028Z,16.45
2023-04-04T00:39:10.084Z,16.42
2023-04-04T00:40:10.008Z,16.43
2023-04-04T00:41:10.026Z,16.43
2023-04-04T00:42:09.981Z,16.43
2023-04-04T00:43:09.994Z,16.43
2023-04-04T00:44:09.953Z,16.43
2023-04-04T00:45:09.946Z,16.43
2023-04-04T00:46:10.030Z,16.43
2023-04-04T00:47:09.929Z,16.43
2023-04-04T00:48:09.931Z,16.42
2023-04-04T00:49:09.901Z,16.42
2023-04-04T00:50:09.908Z,16.45
2023-04-04T00:51:09.879Z,16.42
2023-04-04T00:52:09.867Z,16.42
2023-04-04T00:53:09.910Z,16.43
2023-04-04T00:54:09.848Z,16.43
2023-04-04T00:55:09.840Z,16.42
2023-04-04T00:56:09.824Z,16.42
2023-04-04T00:57:09.835Z,16.43
2023-04-04T00:58:09.832Z,16.42
2023-04-04T00:59:09.856Z,16.43
2023-04-04T01:00:09.799Z,16.42
2023-04-04T01:01:09.782Z,16.43
2023-04-04T01:02:09.771Z,16.42
2023-04-04T01:03:09.749Z,16.42
2023-04-04T01:04:09.788Z,16.43
2023-04-04T01:05:09.724Z,16.43
2023-04-04T01:06:09.731Z,16.42
2023-04-04T01:07:09.714Z,16.42
2023-04-04T01:08:09.692Z,16.43
2023-04-04T01:09:09.705Z,16.41
2023-04-04T01:10:09.671Z,16.42
2023-04-04T01:11:09.676Z,16.42
2023-04-04T01:12:09.669Z,16.42
2023-04-04T01:13:09.840Z,16.41
2023-04-04T01:14:09.647Z,16.42
2023-04-04T01:15:09.636Z,16.42
2023-04-04T01:16:09.648Z,16.42
2023-04-04T01:17:09.587Z,16.41
2023-04-04T01:18:09.598Z,16.42
2023-04-04T01:19:09.598Z,16.41
2023-04-04T01:20:09.578Z,16.42
2023-04-04T01:21:09.545Z,16.41
2023-04-04T01:22:09.533Z,16.42
2023-04-04T01:23:09.554Z,16.42
2023-04-04T01:24:09.541Z,16.41
2023-04-04T01:25:09.501Z,16.41
2023-04-04T01:26:09.506Z,16.42
2023-04-04T01:27:09.481Z,16.41
2023-04-04T01:28:09.501Z,16.41
2023-04-04T01:29:09.501Z,16.41
2023-04-04T01:30:09.447Z,16.41
2023-04-04T01:31:09.464Z,16.41
2023-04-04T01:32:09.429Z,16.41
2023-04-04T01:33:09.462Z,16.41
2023-04-04T01:34:09.428Z,16.41
2023-04-04T01:35:09.396Z,16.41
2023-04-04T01:36:09.448Z,16.41
2023-04-04T01:37:09.394Z,16.41
2023-04-04T01:38:09.362Z,16.42
2023-04-04T01:39:09.356Z,16.41
2023-04-04T01:40:09.341Z,16.39
2023-04-04T01:41:09.333Z,16.42
2023-04-04T01:42:09.340Z,16.41
2023-04-04T01:43:09.313Z,16.39
2023-04-04T01:44:09.303Z,16.41
2023-04-04T01:45:09.347Z,16.39
2023-04-04T01:46:09.326Z,16.39
2023-04-04T01:47:09.267Z,16.41
2023-04-04T01:48:09.261Z,16.39
2023-04-04T01:49:10.904Z,16.39
2023-04-04T01:50:09.236Z,16.41
2023-04-04T01:51:09.248Z,16.41
2023-04-04T01:52:09.218Z,16.39
2023-04-04T01:53:09.210Z,16.41
2023-04-04T01:54:09.194Z,16.41
2023-04-04T01:55:09.181Z,16.39
2023-04-04T01:56:09.193Z,16.39
2023-04-04T01:57:09.168Z,16.39
2023-04-04T01:58:09.172Z,16.39
2023-04-04T01:59:09.201Z,16.39
2023-04-04T02:00:09.148Z,16.41
2023-04-04T02:01:09.194Z,16.39
2023-04-04T02:02:09.108Z,16.38
2023-04-04T02:03:09.131Z,16.39
2023-04-04T02:04:09.127Z,16.38
2023-04-04T02:05:09.080Z,16.39
2023-04-04T02:06:09.065Z,16.39
2023-04-04T02:07:09.062Z,16.39
2023-04-04T02:08:09.065Z,16.38
2023-04-04T02:09:09.033Z,16.39
2023-04-04T02:10:09.037Z,16.39
2023-04-04T02:11:09.027Z,16.39
2023-04-04T02:12:09.001Z,16.41
2023-04-04T02:13:09.014Z,16.39
2023-04-04T02:14:08.979Z,16.39
2023-04-04T02:15:08.965Z,16.39
2023-04-04T02:16:08.988Z,16.38
2023-04-04T02:17:08.970Z,16.39
2023-04-04T02:18:08.933Z,16.39
2023-04-04T02:19:08.947Z,16.39
2023-04-04T02:20:08.949Z,16.39
2023-04-04T02:21:08.910Z,16.38
2023-04-04T02:22:08.892Z,16.39
2023-04-04T02:23:08.879Z,16.38
2023-04-04T02:24:08.893Z,16.39
2023-04-04T02:25:08.887Z,16.39
2023-04-04T02:26:08.851Z,16.39
2023-04-04T02:27:08.850Z,16.38
2023-04-04T02:28:08.827Z,16.38
2023-04-04T02:29:08.858Z,16.39
2023-04-04T02:30:08.803Z,16.39
2023-04-04T02:31:08.812Z,16.39
2023-04-04T02:32:08.787Z,16.39
2023-04-04T02:33:08.803Z,16.38
2023-04-04T02:34:08.768Z,16.39
2023-04-04T02:35:08.777Z,16.38
2023-04-04T02:36:08.755Z,16.38
2023-04-04T02:37:08.731Z,16.39
2023-04-04T02:38:08.716Z,16.38
2023-04-04T02:39:08.739Z,16.38
2023-04-04T02:40:08.716Z,16.38
2023-04-04T02:41:08.684Z,16.38
2023-04-04T02:42:08.700Z,16.38
2023-04-04T02:43:08.667Z,16.38
2023-04-04T02:44:08.653Z,16.35
2023-04-04T02:45:08.648Z,16.35
2023-04-04T02:46:20.556Z,16.38
2023-04-04T02:47:09.769Z,16.38
2023-04-04T02:48:08.633Z,16.35
2023-04-04T02:49:08.631Z,16.38
2023-04-04T02:50:08.594Z,16.39
2023-04-04T02:51:08.583Z,16.35
2023-04-04T02:52:08.598Z,16.38
2023-04-04T02:53:08.561Z,16.35
2023-04-04T02:54:08.551Z,16.38
2023-04-04T02:55:08.563Z,16.38
2023-04-04T02:56:08.530Z,16.35
2023-04-04T02:57:08.524Z,16.35
2023-04-04T02:58:08.532Z,16.35
2023-04-04T02:59:08.557Z,16.38
2023-04-04T03:00:08.507Z,16.35
2023-04-04T03:01:08.537Z,16.35
2023-04-04T03:02:08.585Z,16.35
2023-04-04T03:03:08.782Z,16.35
2023-04-04T03:04:08.496Z,16.34
2023-04-04T03:05:08.475Z,16.35
2023-04-04T03:06:08.423Z,16.35
2023-04-04T03:07:08.458Z,16.35
2023-04-04T03:08:08.407Z,16.38
2023-04-04T03:09:08.391Z,16.35
2023-04-04T03:10:08.387Z,16.35
2023-04-04T03:11:08.373Z,16.35
2023-04-04T03:12:08.383Z,16.35
2023-04-04T03:13:08.349Z,16.35
2023-04-04T03:14:08.368Z,16.35
2023-04-04T03:15:08.330Z,16.35
2023-04-04T03:16:08.360Z,16.34
2023-04-04T03:17:08.305Z,16.35
2023-04-04T03:18:08.421Z,16.34
2023-04-04T03:19:08.286Z,16.35
2023-04-04T03:20:08.283Z,16.35
2023-04-04T03:21:08.314Z,16.38
2023-04-04T03:22:08.252Z,16.34
2023-04-04T03:23:08.269Z,16.35
2023-04-04T03:24:08.231Z,16.35
2023-04-04T03:25:08.220Z,16.35
2023-04-04T03:26:08.213Z,16.35
2023-04-04T03:27:08.195Z,16.34
2023-04-04T03:28:08.195Z,16.35
2023-04-04T03:29:08.197Z,16.35
2023-04-04T03:30:08.164Z,16.34
2023-04-04T03:31:08.155Z,16.35
2023-04-04T03:32:08.260Z,16.35
2023-04-04T03:33:08.131Z,16.34
2023-04-04T03:34:08.146Z,16.34
2023-04-04T03:35:08.138Z,16.33
2023-04-04T03:36:08.134Z,16.35
2023-04-04T03:37:08.157Z,16.34
2023-04-04T03:38:08.091Z,16.34
2023-04-04T03:39:08.087Z,16.34
2023-04-04T03:40:08.060Z,16.33
2023-04-04T03:41:08.052Z,16.34
2023-04-04T03:42:08.037Z,16.34
2023-04-04T03:43:08.024Z,16.34
2023-04-04T03:44:08.038Z,16.34
2023-04-04T03:45:08.006Z,16.35
2023-04-04T03:46:08.118Z,16.34
2023-04-04T03:47:07.984Z,16.34
2023-04-04T03:48:07.971Z,16.34
2023-04-04T03:49:07.983Z,16.33
2023-04-04T03:50:07.960Z,16.34
2023-04-04T03:51:07.934Z,16.34
2023-04-04T03:52:07.930Z,16.33
2023-04-04T03:53:07.959Z,16.33
2023-04-04T03:54:07.937Z,16.33
2023-04-04T03:55:07.895Z,16.33
2023-04-04T03:56:07.885Z,16.33
2023-04-04T03:57:07.870Z,16.33
2023-04-04T03:58:07.866Z,16.33
2023-04-04T03:59:07.934Z,16.33
2023-04-04T04:00:07.847Z,16.33
2023-04-04T04:01:07.849Z,16.33
2023-04-04T04:02:07.885Z,16.33
2023-04-04T04:03:07.962Z,16.33
2023-04-04T04:04:07.910Z,16.33
2023-04-04T04:05:07.784Z,16.33
2023-04-04T04:06:07.791Z,16.33
2023-04-04T04:07:07.760Z,16.31
2023-04-04T04:08:07.751Z,16.34
2023-04-04T04:09:07.762Z,16.33
2023-04-04T04:10:07.753Z,16.33
2023-04-04T04:11:07.737Z,16.33
2023-04-04T04:12:07.704Z,16.33
2023-04-04T04:13:07.719Z,16.33
2023-04-04T04:14:07.699Z,16.33
2023-04-04T04:15:07.682Z,16.33
2023-04-04T04:16:07.814Z,16.31
2023-04-04T04:17:07.662Z,16.33
2023-04-04T04:18:07.645Z,16.33
2023-04-04T04:19:07.630Z,16.31
2023-04-04T04:20:07.629Z,16.33
2023-04-04T04:21:07.648Z,16.33
2023-04-04T04:22:07.610Z,16.31
2023-04-04T04:23:07.594Z,16.33
2023-04-04T04:24:07.574Z,16.33
2023-04-04T04:25:07.592Z,16.31
2023-04-04T04:26:07.554Z,16.33
2023-04-04T04:27:07.573Z,16.31
2023-04-04T04:28:07.540Z,16.30
2023-04-04T04:29:07.540Z,16.31
2023-04-04T04:30:07.523Z,16.31
2023-04-04T04:31:07.628Z,16.33
2023-04-04T04:32:07.496Z,16.31
2023-04-04T04:33:07.550Z,16.33
2023-04-04T04:34:07.490Z,16.31
2023-04-04T04:35:07.460Z,16.33
2023-04-04T04:36:07.523Z,16.33
2023-04-04T04:37:07.438Z,16.31
2023-04-04T04:38:07.454Z,16.33
2023-04-04T04:39:07.421Z,16.33
2023-04-04T04:40:07.412Z,16.31
2023-04-04T04:41:07.430Z,16.31
2023-04-04T04:42:07.390Z,16.30
2023-04-04T04:43:07.395Z,16.31
2023-04-04T04:44:07.375Z,16.30
2023-04-04T04:45:07.363Z,16.31
2023-04-04T04:46:07.344Z,16.30
2023-04-04T04:47:07.411Z,16.31
2023-04-04T04:48:07.448Z,16.30
2023-04-04T04:49:07.408Z,16.31
2023-04-04T04:50:07.310Z,16.31
2023-04-04T04:51:07.303Z,16.31
2023-04-04T04:52:07.286Z,16.31
2023-04-04T04:53:07.276Z,16.30
2023-04-04T04:54:07.301Z,16.31
2023-04-04T04:55:07.258Z,16.30
2023-04-04T04:56:07.239Z,16.30
2023-04-04T04:57:07.255Z,16.31
2023-04-04T04:58:07.219Z,16.31
2023-04-04T04:59:07.396Z,16.31
2023-04-04T05:00:07.214Z,16.30
2023-04-04T05:01:07.238Z,16.30
2023-04-04T05:02:07.194Z,16.30
2023-04-04T05:03:07.219Z,16.30
2023-04-04T05:04:07.149Z,16.31
2023-04-04T05:05:07.168Z,16.28
2023-04-04T05:06:07.132Z,16.28
2023-04-04T05:07:07.144Z,16.30
2023-04-04T05:08:07.113Z,16.31
2023-04-04T05:09:07.106Z,16.28
2023-04-04T05:10:07.085Z,16.30
2023-04-04T05:11:07.087Z,16.28
2023-04-04T05:12:07.063Z,16.30
2023-04-04T05:13:07.095Z,16.28
2023-04-04T05:14:07.062Z,16.30
2023-04-04T05:15:07.059Z,16.30
2023-04-04T05:16:07.038Z,16.28
2023-04-04T05:17:07.009Z,16.30
2023-04-04T05:18:07.104Z,16.30
2023-04-04T05:19:07.010Z,16.27
2023-04-04T05:20:06.980Z,16.30
2023-04-04T05:21:06.965Z,16.30
2023-04-04T05:22:06.980Z,16.28
2023-04-04T05:23:06.959Z,16.30
2023-04-04T05:24:06.940Z,16.28
2023-04-04T05:25:06.942Z,16.28
2023-04-04T05:26:06.914Z,16.30
2023-04-04T05:27:06.909Z,16.28
2023-04-04T05:28:06.892Z,16.30
2023-04-04T05:29:06.918Z,16.28
2023-04-04T05:30:06.893Z,16.30
2023-04-04T05:31:06.857Z,16.28
2023-04-04T05:32:06.857Z,16.28
2023-04-04T05:33:06.866Z,16.28
2023-04-04T05:34:06.846Z,16.27
2023-04-04T05:35:06.891Z,16.28
2023-04-04T05:36:06.820Z,16.30
2023-04-04T05:37:06.794Z,16.28
2023-04-04T05:38:06.785Z,16.30
2023-04-04T05:39:06.791Z,16.28
2023-04-04T05:40:06.761Z,16.28
2023-04-04T05:41:06.770Z,16.28
2023-04-04T05:42:06.740Z,16.30
2023-04-04T05:43:06.739Z,16.30
2023-04-04T05:44:06.723Z,16.28
2023-04-04T05:45:06.777Z,16.28
2023-04-04T05:46:06.715Z,16.30
2023-04-04T05:47:06.684Z,16.28
2023-04-04T05:48:06.734Z,16.28
2023-04-04T05:49:06.667Z,16.28
2023-04-04T05:50:06.687Z,16.30
2023-04-04T05:51:06.642Z,16.28
2023-04-04T05:52:06.639Z,16.28
2023-04-04T05:53:06.623Z,16.28
2023-04-04T05:54:06.614Z,16.28
2023-04-04T05:55:06.605Z,16.28
2023-04-04T05:56:06.616Z,16.30
2023-04-04T05:57:06.578Z,16.30
2023-04-04T05:58:06.575Z,16.30
2023-04-04T05:59:06.651Z,16.28
2023-04-04T06:00:06.566Z,16.28
2023-04-04T06:01:06.563Z,16.28
2023-04-04T06:02:06.527Z,16.28
2023-04-04T06:03:06.648Z,16.30
2023-04-04T06:04:06.525Z,16.28
2023-04-04T06:05:06.497Z,16.28
2023-04-04T06:06:06.547Z,16.30
2023-04-04T06:07:06.503Z,16.28
2023-04-04T06:08:06.476Z,16.27
2023-04-04T06:09:08.685Z,16.27
2023-04-04T06:10:06.445Z,16.30
2023-04-04T06:11:06.439Z,16.28
2023-04-04T06:12:06.421Z,16.28
2023-04-04T06:13:06.437Z,16.30
2023-04-04T06:14:06.399Z,16.30
2023-04-04T06:15:06.389Z,16.28
2023-04-04T06:16:06.463Z,16.28
2023-04-04T06:17:06.400Z,16.28
2023-04-04T06:18:06.440Z,16.30
2023-04-04T06:19:06.342Z,16.27
2023-04-04T06:20:06.336Z,16.28
2023-04-04T06:21:06.322Z,16.28
2023-04-04T06:22:06.319Z,16.28
2023-04-04T06:23:06.310Z,16.28
2023-04-04T06:24:06.321Z,16.28
2023-04-04T06:25:06.281Z,16.28
2023-04-04T06:26:06.285Z,16.28
2023-04-04T06:27:06.279Z,16.28
2023-04-04T06:28:06.255Z,16.28
2023-04-04T06:29:06.258Z,16.27
2023-04-04T06:30:06.229Z,16.30
2023-04-04T06:31:06.245Z,16.28
2023-04-04T06:32:06.214Z,16.28
2023-04-04T06:33:06.314Z,16.30
2023-04-04T06:34:06.206Z,16.31
2023-04-04T06:35:06.209Z,16.30
2023-04-04T06:36:06.173Z,16.27
2023-04-04T06:37:06.147Z,16.27
2023-04-04T06:38:06.142Z,16.28
2023-04-04T06:39:06.124Z,16.28
2023-04-04T06:40:06.125Z,16.25
2023-04-04T06:41:06.132Z,16.27
2023-04-04T06:42:06.093Z,16.27
2023-04-04T06:43:06.099Z,16.27
2023-04-04T06:44:06.072Z,16.27
2023-04-04T06:45:06.072Z,16.25
2023-04-04T06:46:06.072Z,16.28
2023-04-04T06:47:06.127Z,16.28
2023-04-04T06:48:06.070Z,16.28
2023-04-04T06:49:06.041Z,16.30
2023-04-04T06:50:06.011Z,16.28
2023-04-04T06:51:06.019Z,16.28
2023-04-04T06:52:05.984Z,16.30
2023-04-04T06:53:06.006Z,16.31
2023-04-04T06:54:05.964Z,16.30
2023-04-04T06:55:05.955Z,16.30
2023-04-04T06:56:05.943Z,16.31
2023-04-04T06:57:05.986Z,16.31
2023-04-04T06:58:05.924Z,16.31
2023-04-04T06:59:05.938Z,16.33
2023-04-04T07:00:05.931Z,16.31
2023-04-04T07:01:05.959Z,16.33
2023-04-04T07:02:05.951Z,16.31
2023-04-04T07:03:05.974Z,16.33
2023-04-04T07:04:05.871Z,16.33
2023-04-04T07:05:05.873Z,16.33
2023-04-04T07:06:05.834Z,16.33
2023-04-04T07:07:05.853Z,16.33
2023-04-04T07:08:05.814Z,16.33
2023-04-04T07:09:07.169Z,16.33
2023-04-04T07:10:05.792Z,16.31
2023-04-04T07:11:05.784Z,16.33
2023-04-04T07:12:05.769Z,16.33
2023-04-04T07:13:05.780Z,16.33
2023-04-04T07:14:05.751Z,16.33
2023-04-04T07:15:05.743Z,16.33
2023-04-04T07:16:05.796Z,16.34
2023-04-04T07:17:17.159Z,16.34
2023-04-04T07:18:06.728Z,16.35
2023-04-04T07:19:05.695Z,16.35
2023-04-04T07:20:05.689Z,16.39
2023-04-04T07:21:05.748Z,16.38
2023-04-04T07:22:05.682Z,16.38
2023-04-04T07:23:05.652Z,16.35
2023-04-04T07:24:05.642Z,16.38
2023-04-04T07:25:05.634Z,16.39
2023-04-04T07:26:05.624Z,16.41
2023-04-04T07:27:05.635Z,16.41
2023-04-04T07:28:12.221Z,16.41
2023-04-04T07:29:06.611Z,16.41
2023-04-04T07:30:05.585Z,16.39
2023-04-04T07:31:05.595Z,16.41
2023-04-04T07:32:05.615Z,16.42
2023-04-04T07:33:05.609Z,16.42
2023-04-04T07:34:05.536Z,16.43
2023-04-04T07:35:05.544Z,16.42
2023-04-04T07:36:05.589Z,16.45
2023-04-04T07:37:05.528Z,16.43
2023-04-04T07:38:05.514Z,16.45
2023-04-04T07:39:05.479Z,16.45
2023-04-04T07:40:05.506Z,16.42
2023-04-04T07:41:05.454Z,16.45
2023-04-04T07:42:05.446Z,16.45
2023-04-04T07:43:05.466Z,16.43
2023-04-04T07:44:05.420Z,16.45
2023-04-04T07:45:05.443Z,16.45
2023-04-04T07:46:05.422Z,16.46
2023-04-04T07:47:10.030Z,16.45
2023-04-04T07:48:06.399Z,16.45
2023-04-04T07:49:05.372Z,16.46
2023-04-04T07:50:05.358Z,16.45
2023-04-04T07:51:05.349Z,16.46
2023-04-04T07:52:05.335Z,16.45
2023-04-04T07:53:05.378Z,16.45
2023-04-04T07:54:05.330Z,16.45
2023-04-04T07:55:05.308Z,16.45
2023-04-04T07:56:05.287Z,16.43
2023-04-04T07:57:05.283Z,16.45
2023-04-04T07:58:05.276Z,16.45
2023-04-04T07:59:05.378Z,16.45
2023-04-04T08:00:05.256Z,16.45
2023-04-04T08:01:05.234Z,16.45
2023-04-04T08:02:05.241Z,16.43
2023-04-04T08:03:05.372Z,16.43
2023-04-04T08:04:05.292Z,16.42
2023-04-04T08:05:05.195Z,16.43
2023-04-04T08:06:05.177Z,16.43
2023-04-04T08:07:05.192Z,16.43
2023-04-04T08:08:05.155Z,16.42
2023-04-04T08:09:05.172Z,16.43
2023-04-04T08:10:05.169Z,16.43
2023-04-04T08:11:05.128Z,16.45
2023-04-04T08:12:05.113Z,16.45
2023-04-04T08:13:05.102Z,16.46
2023-04-04T08:14:05.090Z,16.48
2023-04-04T08:15:05.086Z,16.49
2023-04-04T08:16:05.192Z,16.52
2023-04-04T08:17:05.068Z,16.56
2023-04-04T08:18:05.082Z,16.58
2023-04-04T08:19:05.037Z,16.61
2023-04-04T08:20:05.066Z,16.66
2023-04-04T08:21:05.016Z,16.70
2023-04-04T08:22:05.008Z,16.75
2023-04-04T08:23:04.998Z,16.82
2023-04-04T08:24:04.995Z,16.86
2023-04-04T08:25:04.997Z,16.91
2023-04-04T08:26:04.978Z,16.96
2023-04-04T08:27:05.869Z,17.01
2023-04-04T08:28:04.958Z,17.07
2023-04-04T08:29:04.926Z,17.08
2023-04-04T08:30:04.940Z,17.15
2023-04-04T08:31:04.963Z,17.18
2023-04-04T08:32:04.903Z,17.22
2023-04-04T08:33:06.376Z,17.23
2023-04-04T08:34:04.876Z,17.26
2023-04-04T08:35:04.867Z,17.31
2023-04-04T08:36:04.910Z,17.33
2023-04-04T08:37:04.865Z,17.34
2023-04-04T08:38:04.830Z,17.36
2023-04-04T08:39:04.835Z,17.38
2023-04-04T08:40:04.838Z,17.41
2023-04-04T08:41:04.818Z,17.43
2023-04-04T08:42:04.785Z,17.44
2023-04-04T08:43:04.793Z,17.46
2023-04-04T08:44:04.763Z,17.49
2023-04-04T08:45:04.773Z,17.48
2023-04-04T08:46:04.744Z,17.48
2023-04-04T08:47:04.756Z,17.49
2023-04-04T08:48:04.792Z,17.51
2023-04-04T08:49:04.722Z,17.51
2023-04-04T08:50:04.702Z,17.54
2023-04-04T08:51:04.714Z,17.52
2023-04-04T08:52:04.680Z,17.54
2023-04-04T08:53:04.676Z,17.54
2023-04-04T08:54:04.660Z,17.55
2023-04-04T08:55:04.652Z,17.55
2023-04-04T08:56:04.664Z,17.54
2023-04-04T08:57:04.652Z,17.55
2023-04-04T08:58:04.639Z,17.55
2023-04-04T08:59:04.646Z,17.55
2023-04-04T09:00:04.713Z,17.55
2023-04-04T09:01:04.618Z,17.56
2023-04-04T09:02:04.640Z,17.54
2023-04-04T09:03:04.703Z,17.56
2023-04-04T09:04:04.557Z,17.55
2023-04-04T09:05:06.926Z,17.58
2023-04-04T09:06:04.537Z,17.55
2023-04-04T09:07:04.520Z,17.56
2023-04-04T09:08:04.526Z,17.55
2023-04-04T09:09:04.573Z,17.54
2023-04-04T09:10:04.494Z,17.54
2023-04-04T09:11:04.499Z,17.54
2023-04-04T09:12:04.470Z,17.52
2023-04-04T09:13:14.680Z,17.52
2023-04-04T09:14:05.467Z,17.54
2023-04-04T09:15:04.475Z,17.51
2023-04-04T09:16:04.478Z,17.52
2023-04-04T09:17:04.438Z,17.52
2023-04-04T09:18:04.484Z,17.51
2023-04-04T09:19:04.438Z,17.51
2023-04-04T09:20:04.383Z,17.51
2023-04-04T09:21:04.369Z,17.51
2023-04-04T09:22:04.401Z,17.51
2023-04-04T09:23:04.349Z,17.51
2023-04-04T09:24:04.335Z,17.51
2023-04-04T09:25:04.344Z,17.51
2023-04-04T09:26:04.926Z,17.48
2023-04-04T09:27:04.308Z,17.49
2023-04-04T09:28:04.296Z,17.48
2023-04-04T09:29:04.362Z,17.46
2023-04-04T09:30:05.791Z,17.46
2023-04-04T09:31:04.260Z,17.46
2023-04-04T09:32:04.288Z,17.46
2023-04-04T09:33:04.367Z,17.46
2023-04-04T09:34:04.224Z,17.46
2023-04-04T09:35:04.216Z,17.44
2023-04-04T09:36:04.221Z,17.44
2023-04-04T09:37:04.232Z,17.43
2023-04-04T09:38:04.209Z,17.44
2023-04-04T09:39:04.385Z,17.43
2023-04-04T09:40:04.239Z,17.41
2023-04-04T09:41:04.151Z,17.43
2023-04-04T09:42:04.181Z,17.41
2023-04-04T09:43:04.160Z,17.40
2023-04-04T09:44:04.121Z,17.41
2023-04-04T09:45:04.129Z,17.41
2023-04-04T09:46:04.227Z,17.40
2023-04-04T09:47:04.085Z,17.40
2023-04-04T09:48:04.116Z,17.40
2023-04-04T09:49:04.113Z,17.40
2023-04-04T09:50:04.071Z,17.40
2023-04-04T09:51:04.041Z,17.37
2023-04-04T09:52:04.034Z,17.37
2023-04-04T09:53:04.021Z,17.36
2023-04-04T09:54:04.061Z,17.37
2023-04-04T09:55:04.014Z,17.37
2023-04-04T09:56:03.986Z,17.36
2023-04-04T09:57:04.008Z,17.37
2023-04-04T09:58:03.966Z,17.34
2023-04-04T09:59:05.205Z,17.36
2023-04-04T10:00:03.975Z,17.36
2023-04-04T10:01:04.010Z,17.34
2023-04-04T10:02:03.921Z,17.33
2023-04-04T10:03:03.935Z,17.33
2023-04-04T10:04:03.956Z,17.31
2023-04-04T10:05:06.512Z,17.33
2023-04-04T10:06:06.783Z,17.34
2023-04-04T10:07:03.885Z,17.33
2023-04-04T10:08:03.861Z,17.30
2023-04-04T10:09:03.865Z,17.31
2023-04-04T10:10:03.847Z,17.31
2023-04-04T10:11:11.561Z,17.31
2023-04-04T10:12:04.816Z,17.30
2023-04-04T10:13:03.805Z,17.28
2023-04-04T10:14:04.078Z,17.30
2023-04-04T10:15:03.779Z,17.30
2023-04-04T10:16:03.837Z,17.31
2023-04-04T10:17:03.808Z,17.30
2023-04-04T10:18:03.817Z,17.30
2023-04-04T10:19:03.741Z,17.28
2023-04-04T10:20:03.730Z,17.28
2023-04-04T10:21:14.684Z,17.26
2023-04-04T10:22:04.704Z,17.26
2023-04-04T10:23:03.690Z,17.26
2023-04-04T10:24:03.702Z,17.26
2023-04-04T10:25:03.679Z,17.26
2023-04-04T10:26:03.661Z,17.25
2023-04-04T10:27:03.652Z,17.25
2023-04-04T10:28:03.658Z,17.25
2023-04-04T10:29:03.630Z,17.25
2023-04-04T10:30:03.633Z,17.25
2023-04-04T10:31:06.641Z,17.25
2023-04-04T10:32:03.661Z,17.25
2023-04-04T10:33:03.660Z,17.23
2023-04-04T10:34:03.576Z,17.23
2023-04-04T10:35:03.562Z,17.22
2023-04-04T10:36:03.558Z,17.23
2023-04-04T10:37:03.564Z,17.22
2023-04-04T10:38:03.538Z,17.21
2023-04-04T10:39:03.516Z,17.22
2023-04-04T10:40:03.522Z,17.21
2023-04-04T10:41:03.507Z,17.21
2023-04-04T10:42:03.482Z,17.21
2023-04-04T10:43:03.472Z,17.19
2023-04-04T10:44:03.464Z,17.19
2023-04-04T10:45:13.122Z,17.19
2023-04-04T10:46:04.498Z,17.19
2023-04-04T10:47:03.428Z,17.19
2023-04-04T10:48:03.508Z,17.19
2023-04-04T10:49:03.450Z,17.18
2023-04-04T10:50:03.396Z,17.18
2023-04-04T10:51:03.384Z,17.18
2023-04-04T10:52:03.373Z,17.16
2023-04-04T10:53:03.364Z,17.18
2023-04-04T10:54:03.373Z,17.16
2023-04-04T10:55:03.339Z,17.16
2023-04-04T10:56:03.329Z,17.18
2023-04-04T10:57:03.337Z,17.16
2023-04-04T10:58:03.310Z,17.18
2023-04-04T10:59:03.301Z,17.16
2023-04-04T11:00:03.354Z,17.16
2023-04-04T11:01:03.310Z,17.16
2023-04-04T11:02:03.273Z,17.16
2023-04-04T11:03:03.339Z,17.16
2023-04-04T11:04:03.313Z,17.16
2023-04-04T11:05:03.255Z,17.16
2023-04-04T11:06:03.221Z,17.16
2023-04-04T11:07:03.231Z,17.15
2023-04-04T11:09:03.192Z,17.15
2023-04-04T11:10:03.185Z,17.16
2023-04-04T11:11:09.661Z,17.15
2023-04-04T11:12:04.176Z,17.16
2023-04-04T11:13:11.762Z,17.15
2023-04-04T11:14:04.172Z,17.15
2023-04-04T11:15:03.148Z,17.15
2023-04-04T11:16:03.113Z,17.15
2023-04-04T11:17:03.104Z,17.15
2023-04-04T11:18:08.100Z,17.16
2023-04-04T11:19:04.080Z,17.16
2023-04-04T11:20:03.093Z,17.16
2023-04-04T11:21:03.079Z,17.18
2023-04-04T11:22:03.051Z,17.18
2023-04-04T11:23:03.065Z,17.18
2023-04-04T11:24:03.031Z,17.19
2023-04-04T11:25:03.015Z,17.19
2023-04-04T11:26:03.013Z,17.18
2023-04-04T11:27:02.995Z,17.18
2023-04-04T11:28:03.006Z,17.19
2023-04-04T11:29:03.002Z,17.19
2023-04-04T11:30:02.961Z,17.19
2023-04-04T11:31:02.951Z,17.19
2023-04-04T11:32:02.963Z,17.18
2023-04-04T11:34:02.926Z,17.19
2023-04-04T11:35:02.917Z,17.19
2023-04-04T11:36:02.932Z,17.18
2023-04-04T11:37:02.916Z,17.19
2023-04-04T11:38:02.892Z,17.21
2023-04-04T11:39:02.884Z,17.21
2023-04-04T11:40:02.852Z,17.21
2023-04-04T11:41:02.844Z,17.21
2023-04-04T11:42:02.832Z,17.21
2023-04-04T11:43:02.820Z,17.21
2023-04-04T11:44:02.842Z,17.22
2023-04-04T11:45:02.809Z,17.22
2023-04-04T11:46:02.813Z,17.21
2023-04-04T11:47:02.780Z,17.22
2023-04-04T11:48:02.790Z,17.22
2023-04-04T11:49:02.752Z,17.22
2023-04-04T11:50:02.765Z,17.23
2023-04-04T11:51:02.731Z,17.25
2023-04-04T11:52:02.747Z,17.23
2023-04-04T11:53:02.853Z,17.25
2023-04-04T11:54:02.699Z,17.25
2023-04-04T11:55:02.685Z,17.25
2023-04-04T11:56:02.679Z,17.25
2023-04-04T11:57:02.666Z,17.26
2023-04-04T11:58:02.673Z,17.26
2023-04-04T11:59:11.057Z,17.25
2023-04-04T12:00:03.631Z,17.26
2023-04-04T12:01:02.622Z,17.26
2023-04-04T12:02:02.610Z,17.25
2023-04-04T12:03:02.786Z,17.25
2023-04-04T12:04:02.599Z,17.25
2023-04-04T12:05:02.685Z,17.25
2023-04-04T12:06:02.675Z,17.25
2023-04-04T12:07:02.586Z,17.25
2023-04-04T12:08:02.551Z,17.23
2023-04-04T12:09:02.557Z,17.25
2023-04-04T12:10:02.523Z,17.25
2023-04-04T12:11:02.536Z,17.25
2023-04-04T12:12:02.502Z,17.25
2023-04-04T12:13:02.490Z,17.25
2023-04-04T12:14:02.483Z,17.25
2023-04-04T12:15:14.641Z,17.25
2023-04-04T12:16:03.497Z,17.25
2023-04-04T12:17:02.470Z,17.28
2023-04-04T12:18:02.465Z,17.26
2023-04-04T12:19:02.433Z,17.28
2023-04-04T12:20:02.443Z,17.26
2023-04-04T12:21:02.439Z,17.28
2023-04-04T12:22:03.926Z,17.28
2023-04-04T12:23:02.386Z,17.28
2023-04-04T12:24:02.371Z,17.28
2023-04-04T12:25:02.406Z,17.28
2023-04-04T12:26:02.360Z,17.28
2023-04-04T12:27:02.337Z,17.30
2023-04-04T12:28:02.324Z,17.30
2023-04-04T12:29:02.329Z,17.31
2023-04-04T12:30:02.330Z,17.31
2023-04-04T12:31:02.469Z,17.33
2023-04-04T12:32:02.308Z,17.31
2023-04-04T12:33:02.356Z,17.33
2023-04-04T12:34:02.261Z,17.34
2023-04-04T12:35:02.300Z,17.34
2023-04-04T12:36:02.294Z,17.34
2023-04-04T12:37:02.233Z,17.36
2023-04-04T12:38:02.263Z,17.37
2023-04-04T12:39:02.216Z,17.36
2023-04-04T12:40:02.199Z,17.37
2023-04-04T12:41:02.237Z,17.37
2023-04-04T12:42:02.172Z,17.38
2023-04-04T12:43:02.196Z,17.40
2023-04-04T12:44:02.155Z,17.37
2023-04-04T12:45:02.135Z,17.40
2023-04-04T12:46:02.155Z,17.41
2023-04-04T12:47:02.220Z,17.38
2023-04-04T12:48:02.138Z,17.40
2023-04-04T12:49:02.095Z,17.41
2023-04-04T12:50:02.093Z,17.41
2023-04-04T12:51:02.070Z,17.41
2023-04-04T12:52:02.098Z,17.43
2023-04-04T12:53:24.058Z,17.44
2023-04-04T12:54:03.039Z,17.44